createdAt,value
2022-09-04T00:02:09.665Z,98160.34
2022-09-04T00:05:24.016Z,98166.72
2022-09-04T00:08:44.604Z,98168.47
2022-09-04T00:11:58.318Z,98164.47
2022-09-04T00:15:09.992Z,98173.06
2022-09-04T00:18:23.397Z,98165.75
2022-09-04T00:21:35.635Z,98165.88
2022-09-04T00:24:45.037Z,98166.81
2022-09-04T00:27:56.505Z,98167.31
2022-09-04T00:31:10.540Z,98175.13
2022-09-04T00:34:26.235Z,98166.03
2022-09-04T00:37:36.866Z,98173.34
2022-09-04T00:40:45.181Z,98174.00
2022-09-04T00:44:12.343Z,98171.94
2022-09-04T00:47:51.927Z,98180.34
2022-09-04T00:51:17.409Z,98183.88
2022-09-04T00:55:06.283Z,98179.88
2022-09-04T00:58:48.717Z,98183.38
2022-09-04T01:01:57.272Z,98181.78
2022-09-04T01:05:07.356Z,98196.25
2022-09-04T01:08:29.092Z,98200.91
2022-09-04T01:11:41.564Z,98196.09
2022-09-04T01:14:53.165Z,98199.28
2022-09-04T01:18:05.136Z,98203.88
2022-09-04T01:21:20.209Z,98195.75
2022-09-04T01:24:40.214Z,98207.22
2022-09-04T01:27:51.695Z,98217.44
2022-09-04T01:31:02.142Z,98222.69
2022-09-04T01:34:20.085Z,98218.38
2022-09-04T01:37:38.545Z,98222.03
2022-09-04T01:40:46.183Z,98225.34
2022-09-04T01:43:52.005Z,98218.97
2022-09-04T01:47:04.450Z,98216.09
2022-09-04T01:50:12.849Z,98229.31
2022-09-04T01:53:22.431Z,98227.41
2022-09-04T01:56:35.100Z,98227.56
2022-09-04T01:59:53.449Z,98226.38
2022-09-04T02:03:03.702Z,98247.25
2022-09-04T02:06:24.523Z,98231.63
2022-09-04T02:09:36.716Z,98234.47
2022-09-04T02:12:47.821Z,98234.59
2022-09-04T02:16:06.158Z,98243.50
2022-09-04T02:19:26.607Z,98243.94
2022-09-04T02:22:39.905Z,98244.84
2022-09-04T02:25:48.862Z,98243.25
2022-09-04T02:28:59.995Z,98247.66
2022-09-04T02:32:09.746Z,98256.72
2022-09-04T02:35:21.046Z,98254.44
2022-09-04T02:38:33.418Z,98250.16
2022-09-04T02:41:50.754Z,98250.75
2022-09-04T02:45:09.441Z,98249.00
2022-09-04T02:48:21.928Z,98252.00
2022-09-04T02:51:41.102Z,98242.59
2022-09-04T02:54:59.050Z,98246.88
2022-09-04T02:58:14.739Z,98249.59
2022-09-04T03:01:24.935Z,98245.00
2022-09-04T03:04:41.200Z,98254.19
2022-09-04T03:07:50.378Z,98251.00
2022-09-04T03:10:59.794Z,98250.31
2022-09-04T03:14:09.791Z,98252.53
2022-09-04T03:17:19.281Z,98249.34
2022-09-04T03:20:26.585Z,98255.69
2022-09-04T03:23:40.410Z,98260.09
2022-09-04T03:26:46.987Z,98258.81
2022-09-04T03:29:56.577Z,98252.09
2022-09-04T03:33:05.020Z,98256.72
2022-09-04T03:36:16.363Z,98261.91
2022-09-04T03:39:27.629Z,98262.03
2022-09-04T03:42:39.459Z,98270.78
2022-09-04T03:45:55.109Z,98261.66
2022-09-04T03:49:09.041Z,98265.16
2022-09-04T03:52:25.227Z,98269.09
2022-09-04T03:55:56.554Z,98264.97
2022-09-04T03:59:05.526Z,98274.69
2022-09-04T04:02:16.565Z,98267.66
2022-09-04T04:05:29.580Z,98273.28
2022-09-04T04:08:51.133Z,98279.50
2022-09-04T04:12:19.778Z,98275.03
2022-09-04T04:15:32.886Z,98281.03
2022-09-04T04:18:53.087Z,98286.72
2022-09-04T04:22:10.062Z,98286.03
2022-09-04T04:25:25.100Z,98308.75
2022-09-04T04:29:08.579Z,98307.44
2022-09-04T04:32:29.754Z,98315.63
2022-09-04T04:35:42.437Z,98316.13
2022-09-04T04:38:58.857Z,98315.81
2022-09-04T04:42:18.492Z,98320.84
2022-09-04T04:45:46.772Z,98318.66
2022-09-04T04:49:23.636Z,98324.75
2022-09-04T04:52:33.821Z,98332.84
2022-09-04T04:55:43.009Z,98339.88
2022-09-04T04:58:59.281Z,98334.75
2022-09-04T05:02:10.862Z,98341.56
2022-09-04T05:05:19.495Z,98344.03
2022-09-04T05:08:33.352Z,98358.06
2022-09-04T05:11:43.820Z,98359.78
2022-09-04T05:14:56.306Z,98362.94
2022-09-04T05:18:04.616Z,98357.78
2022-09-04T05:21:13.694Z,98371.69
2022-09-04T05:24:23.612Z,98378.59
2022-09-04T05:27:49.545Z,98376.09
2022-09-04T05:31:00.352Z,98383.66
2022-09-04T05:34:08.593Z,98383.44
2022-09-04T05:37:16.952Z,98392.47
2022-09-04T05:40:28.630Z,98396.06
2022-09-04T05:43:43.820Z,98397.88
2022-09-04T05:47:04.297Z,98402.25
2022-09-04T05:50:29.163Z,98411.75
2022-09-04T05:54:13.648Z,98412.97
2022-09-04T05:57:32.363Z,98417.53
2022-09-04T06:00:52.165Z,98416.91
2022-09-04T06:04:24.174Z,98423.09
2022-09-04T06:07:33.610Z,98424.06
2022-09-04T06:10:54.490Z,98424.81
2022-09-04T06:14:10.146Z,98427.63
2022-09-04T06:17:30.906Z,98438.13
2022-09-04T06:20:53.326Z,98430.19
2022-09-04T06:24:27.247Z,98437.34
2022-09-04T06:27:50.602Z,98435.06
2022-09-04T06:31:06.919Z,98438.97
2022-09-04T06:34:27.628Z,98442.03
2022-09-04T06:37:44.134Z,98442.25
2022-09-04T06:41:00.927Z,98446.69
2022-09-04T06:44:16.913Z,98452.06
2022-09-04T06:47:27.607Z,98449.34
2022-09-04T06:50:42.419Z,98447.50
2022-09-04T06:54:00.654Z,98444.50
2022-09-04T06:57:31.382Z,98445.31
2022-09-04T07:00:43.970Z,98450.78
2022-09-04T07:04:04.449Z,98459.19
2022-09-04T07:07:19.451Z,98455.72
2022-09-04T07:10:30.298Z,98463.97
2022-09-04T07:13:48.884Z,98468.81
2022-09-04T07:17:06.332Z,98468.84
2022-09-04T07:20:22.658Z,98475.53
2022-09-04T07:23:38.866Z,98484.69
2022-09-04T07:26:54.310Z,98489.03
2022-09-04T07:30:05.714Z,98488.00
2022-09-04T07:33:19.014Z,98486.41
2022-09-04T07:36:33.979Z,98486.22
2022-09-04T07:39:45.796Z,98490.13
2022-09-04T07:42:58.591Z,98491.91
2022-09-04T07:46:10.490Z,98497.28
2022-09-04T07:49:23.266Z,98493.38
2022-09-04T07:53:02.571Z,98505.00
2022-09-04T07:56:18.257Z,98510.00
2022-09-04T07:59:51.742Z,98513.94
2022-09-04T08:03:31.383Z,98514.53
2022-09-04T08:06:42.407Z,98514.41
2022-09-04T08:10:06.080Z,98520.13
2022-09-04T08:13:30.145Z,98525.50
2022-09-04T08:16:44.989Z,98519.28
2022-09-04T08:20:01.321Z,98520.38
2022-09-04T08:23:25.149Z,98520.78
2022-09-04T08:26:38.321Z,98526.28
2022-09-04T08:30:04.517Z,98534.03
2022-09-04T08:33:45.438Z,98546.00
2022-09-04T08:37:02.039Z,98545.31
2022-09-04T08:40:35.167Z,98541.44
2022-09-04T08:44:22.548Z,98531.94
2022-09-04T08:47:57.238Z,98537.56
2022-09-04T08:51:40.940Z,98538.91
2022-09-04T08:55:04.184Z,98543.28
2022-09-04T08:58:34.289Z,98546.41
2022-09-04T09:02:21.190Z,98549.63
2022-09-04T09:05:58.988Z,98548.94
2022-09-04T09:09:35.154Z,98538.56
2022-09-04T09:13:17.399Z,98544.63
2022-09-04T09:16:26.501Z,98538.75
2022-09-04T09:19:46.283Z,98545.88
2022-09-04T09:23:18.396Z,98540.34
2022-09-04T09:26:29.632Z,98542.53
2022-09-04T09:29:59.683Z,98537.28
2022-09-04T09:33:43.381Z,98534.50
2022-09-04T09:37:26.273Z,98533.78
2022-09-04T09:41:12.107Z,98535.53
2022-09-04T09:44:37.777Z,98539.13
2022-09-04T09:48:11.554Z,98541.88
2022-09-04T09:51:45.851Z,98529.00
2022-09-04T09:55:25.441Z,98531.44
2022-09-04T09:59:17.402Z,98534.88
2022-09-04T10:03:17.910Z,98531.25
2022-09-04T10:06:54.966Z,98527.34
2022-09-04T10:10:31.415Z,98532.78
2022-09-04T10:14:05.568Z,98532.38
2022-09-04T10:17:37.259Z,98531.53
2022-09-04T10:21:26.481Z,98517.53
2022-09-04T10:25:03.660Z,98518.78
2022-09-04T10:28:47.838Z,98513.56
2022-09-04T10:32:33.368Z,98509.44
2022-09-04T10:35:49.908Z,98508.59
2022-09-04T10:39:26.592Z,98518.25
2022-09-04T10:42:47.086Z,98512.94
2022-09-04T10:46:06.599Z,98510.09
2022-09-04T10:49:30.883Z,98512.81
2022-09-04T10:53:21.088Z,98511.63
2022-09-04T10:56:30.480Z,98507.47
2022-09-04T11:00:07.244Z,98504.69
2022-09-04T11:03:43.870Z,98506.03
2022-09-04T11:07:19.017Z,98503.78
2022-09-04T11:10:33.702Z,98500.34
2022-09-04T11:14:20.586Z,98512.22
2022-09-04T11:18:07.694Z,98503.63
2022-09-04T11:21:55.006Z,98509.06
2022-09-04T11:25:23.253Z,98503.31
2022-09-04T11:29:04.069Z,98500.72
2022-09-04T11:32:23.104Z,98493.78
2022-09-04T11:36:12.200Z,98490.28
2022-09-04T11:39:49.893Z,98488.66
2022-09-04T11:43:23.186Z,98487.94
2022-09-04T11:46:50.164Z,98488.63
2022-09-04T11:50:16.919Z,98492.47
2022-09-04T11:53:52.626Z,98493.81
2022-09-04T11:57:08.148Z,98494.44
2022-09-04T12:00:14.149Z,98496.97
2022-09-04T12:03:49.392Z,98504.22
2022-09-04T12:07:12.370Z,98506.38
2022-09-04T12:10:29.393Z,98500.03
2022-09-04T12:13:52.704Z,98499.97
2022-09-04T12:17:37.921Z,98503.81
2022-09-04T12:21:19.389Z,98490.81
2022-09-04T12:24:48.248Z,98506.22
2022-09-04T12:28:19.012Z,98508.09
2022-09-04T12:31:54.401Z,98504.59
2022-09-04T12:35:31.625Z,98502.22
2022-09-04T12:39:11.813Z,98496.09
2022-09-04T12:42:21.529Z,98501.31
2022-09-04T12:45:31.144Z,98509.03
2022-09-04T12:48:43.885Z,98495.31
2022-09-04T12:51:54.033Z,98494.44
2022-09-04T12:55:07.595Z,98491.13
2022-09-04T12:58:26.897Z,98501.09
2022-09-04T13:01:42.509Z,98492.13
2022-09-04T13:04:57.331Z,98496.53
2022-09-04T13:08:11.553Z,98497.81
2022-09-04T13:11:28.625Z,98494.34
2022-09-04T13:14:51.582Z,98488.44
2022-09-04T13:18:03.868Z,98496.72
2022-09-04T13:21:23.327Z,98503.44
2022-09-04T13:24:44.486Z,98502.25
2022-09-04T13:28:03.200Z,98498.31
2022-09-04T13:31:33.297Z,98504.38
2022-09-04T13:34:50.184Z,98494.56
2022-09-04T13:38:12.527Z,98491.13
2022-09-04T13:41:34.177Z,98495.16
2022-09-04T13:44:57.361Z,98496.38
2022-09-04T13:48:06.070Z,98488.50
2022-09-04T13:51:14.170Z,98484.94
2022-09-04T13:54:24.832Z,98490.34
2022-09-04T13:57:31.033Z,98491.88
2022-09-04T14:00:37.705Z,98493.53
2022-09-04T14:03:45.151Z,98487.72
2022-09-04T14:06:49.129Z,98490.06
2022-09-04T14:09:57.541Z,98489.72
2022-09-04T14:13:11.232Z,98484.22
2022-09-04T14:16:15.844Z,98490.56
2022-09-04T14:19:32.551Z,98493.41
2022-09-04T14:22:46.057Z,98488.75
2022-09-04T14:25:58.010Z,98485.97
2022-09-04T14:29:08.922Z,98492.59
2022-09-04T14:32:23.266Z,98486.06
2022-09-04T14:35:35.282Z,98480.66
2022-09-04T14:39:06.534Z,98484.22
2022-09-04T14:42:25.622Z,98485.00
2022-09-04T14:46:02.585Z,98491.31
2022-09-04T14:49:09.382Z,98481.75
2022-09-04T14:52:19.618Z,98486.09
2022-09-04T14:55:26.934Z,98480.53
2022-09-04T14:58:36.734Z,98487.66
2022-09-04T15:01:59.948Z,98488.88
2022-09-04T15:05:08.519Z,98482.53
2022-09-04T15:08:12.896Z,98479.78
2022-09-04T15:11:31.453Z,98486.09
2022-09-04T15:14:39.234Z,98478.16
2022-09-04T15:17:51.555Z,98472.97
2022-09-04T15:20:58.491Z,98471.38
2022-09-04T15:24:11.038Z,98469.31
2022-09-04T15:27:19.935Z,98473.63
2022-09-04T15:30:25.558Z,98471.53
2022-09-04T15:33:28.354Z,98467.94
2022-09-04T15:36:32.080Z,98467.16
2022-09-04T15:39:44.428Z,98461.22
2022-09-04T15:42:58.740Z,98466.25
2022-09-04T15:46:09.389Z,98465.00
2022-09-04T15:49:31.262Z,98465.31
2022-09-04T15:52:42.449Z,98457.75
2022-09-04T15:55:46.909Z,98455.38
2022-09-04T15:58:56.129Z,98464.78
2022-09-04T16:02:12.561Z,98460.00
2022-09-04T16:05:23.610Z,98455.63
2022-09-04T16:08:33.447Z,98457.16
2022-09-04T16:11:41.507Z,98456.66
2022-09-04T16:14:48.314Z,98460.94
2022-09-04T16:17:54.998Z,98458.44
2022-09-04T16:21:01.020Z,98456.38
2022-09-04T16:24:09.882Z,98453.13
2022-09-04T16:27:16.585Z,98455.34
2022-09-04T16:30:32.933Z,98456.31
2022-09-04T16:33:47.046Z,98456.94
2022-09-04T16:36:58.487Z,98447.78
2022-09-04T16:40:12.809Z,98450.28
2022-09-04T16:43:24.797Z,98451.09
2022-09-04T16:46:31.171Z,98453.97
2022-09-04T16:49:47.133Z,98445.06
2022-09-04T16:53:12.888Z,98451.06
2022-09-04T16:56:26.222Z,98453.13
2022-09-04T16:59:39.315Z,98450.16
2022-09-04T17:02:48.847Z,98451.78
2022-09-04T17:05:59.568Z,98452.59
2022-09-04T17:09:08.239Z,98457.38
2022-09-04T17:12:34.991Z,98458.63
2022-09-04T17:15:53.297Z,98463.75
2022-09-04T17:18:56.849Z,98462.53
2022-09-04T17:29:00.322Z,98464.81
2022-09-04T17:29:10.105Z,98468.53
2022-09-04T17:29:41.648Z,98464.16
2022-09-04T17:38:53.748Z,98465.25
2022-09-04T17:40:35.700Z,98457.03
2022-09-04T17:40:56.732Z,98449.25
2022-09-04T17:43:32.885Z,98455.16
2022-09-04T17:46:38.921Z,98459.09
2022-09-04T17:49:52.766Z,98455.84
2022-09-04T17:53:03.198Z,98474.00
2022-09-04T17:56:21.479Z,98476.31
2022-09-04T17:59:35.446Z,98469.84
2022-09-04T18:02:52.647Z,98476.25
2022-09-04T18:06:05.037Z,98485.28
2022-09-04T18:09:26.544Z,98491.41
2022-09-04T18:12:47.995Z,98491.88
2022-09-04T18:16:04.013Z,98494.75
2022-09-04T18:19:23.480Z,98502.69
2022-09-04T18:22:36.195Z,98500.75
2022-09-04T18:25:52.018Z,98513.97
2022-09-04T18:29:55.151Z,98512.91
2022-09-04T18:37:13.274Z,98521.69
2022-09-04T18:37:24.422Z,98517.41
2022-09-04T18:40:04.628Z,98522.97
2022-09-04T18:48:52.788Z,98533.63
2022-09-04T18:50:34.464Z,98536.09
2022-09-04T18:54:18.964Z,98548.31
2022-09-04T18:57:43.663Z,98549.19
2022-09-04T19:01:03.372Z,98545.28
2022-09-04T19:04:45.902Z,98555.44
2022-09-04T19:08:04.476Z,98558.56
2022-09-04T19:11:30.482Z,98556.22
2022-09-04T19:14:50.798Z,98563.63
2022-09-04T19:18:10.539Z,98562.88
2022-09-04T19:21:58.191Z,98566.13
2022-09-04T19:25:18.964Z,98567.13
2022-09-04T19:28:40.416Z,98569.88
2022-09-04T19:32:06.000Z,98570.88
2022-09-04T19:35:18.672Z,98569.00
2022-09-04T19:42:07.517Z,98572.56
2022-09-04T19:46:19.488Z,98574.31
2022-09-04T19:46:26.041Z,98567.44
2022-09-04T19:52:05.001Z,98567.75
2022-09-04T19:53:30.090Z,98571.78
2022-09-04T19:56:36.664Z,98566.53
2022-09-04T20:00:33.678Z,98560.91
2022-09-04T20:03:41.548Z,98563.34
2022-09-04T20:06:52.201Z,98551.84
2022-09-04T20:10:04.269Z,98557.13
2022-09-04T20:13:27.872Z,98554.09
2022-09-04T20:16:39.744Z,98561.16
2022-09-04T20:20:05.161Z,98557.19
2022-09-04T20:30:34.013Z,98558.63
2022-09-04T20:33:45.249Z,98557.03
2022-09-04T20:36:57.897Z,98559.44
2022-09-04T20:40:35.957Z,98564.09
2022-09-04T20:43:55.259Z,98564.56
2022-09-04T20:52:44.598Z,98573.66
2022-09-04T20:52:59.379Z,98573.81
2022-09-04T20:55:01.912Z,98562.28
2022-09-04T21:02:37.854Z,98564.69
2022-09-04T21:03:19.733Z,98567.41
2022-09-04T21:06:11.176Z,98565.81
2022-09-04T21:09:33.298Z,98560.22
2022-09-04T21:13:14.107Z,98563.56
2022-09-04T21:16:35.075Z,98566.44
2022-09-04T21:20:32.805Z,98566.28
2022-09-04T21:28:01.401Z,98565.78
2022-09-04T21:31:20.025Z,98564.34
2022-09-04T21:34:45.539Z,98571.84
2022-09-04T21:38:07.024Z,98571.50
2022-09-04T21:41:28.451Z,98573.56
2022-09-04T21:45:16.402Z,98587.78
2022-09-04T21:48:41.476Z,98585.84
2022-09-04T21:52:12.343Z,98584.88
2022-09-04T22:00:16.128Z,98579.75
2022-09-04T22:02:42.248Z,98586.41
2022-09-04T22:03:02.596Z,98583.81
2022-09-04T22:06:42.496Z,98588.59
2022-09-04T22:13:42.610Z,98586.50
2022-09-04T22:14:00.063Z,98594.78
2022-09-04T22:17:26.293Z,98598.28
2022-09-04T22:21:00.077Z,98594.38
2022-09-04T22:24:45.641Z,98600.94
2022-09-04T22:28:22.774Z,98601.38
2022-09-04T22:32:02.281Z,98600.38
2022-09-04T22:35:48.655Z,98597.50
2022-09-04T22:39:50.243Z,98602.88
2022-09-04T22:43:12.073Z,98602.25
2022-09-04T22:50:21.698Z,98607.81
2022-09-04T22:54:09.290Z,98606.53
2022-09-04T22:57:20.259Z,98605.72
2022-09-04T23:00:28.164Z,98601.72
2022-09-04T23:03:55.893Z,98608.66
2022-09-04T23:13:45.006Z,98609.47
2022-09-04T23:13:59.032Z,98618.56
2022-09-04T23:14:43.834Z,98613.25
2022-09-04T23:19:53.989Z,98612.44
2022-09-04T23:26:35.967Z,98618.66
2022-09-04T23:26:48.000Z,98612.34
2022-09-04T23:29:20.778Z,98620.78
2022-09-04T23:33:00.567Z,98624.91
2022-09-04T23:36:21.390Z,98622.31
2022-09-04T23:39:49.712Z,98621.13
2022-09-04T23:43:20.195Z,98625.16
2022-09-04T23:46:42.422Z,98621.94
2022-09-04T23:50:00.245Z,98629.75
2022-09-04T23:53:13.005Z,98626.53
2022-09-04T23:56:23.723Z,98634.81
2022-09-04T23:59:38.041Z,98626.19
